createdAt,value
2019-04-21T00:02:08.888Z,15.68
2019-04-21T00:04:52.018Z,15.66
2019-04-21T00:07:31.881Z,15.63
2019-04-21T00:10:07.602Z,15.63
2019-04-21T00:12:34.467Z,15.60
2019-04-21T00:15:01.993Z,15.56
2019-04-21T00:17:27.031Z,15.55
2019-04-21T00:20:15.533Z,15.52
2019-04-21T00:22:47.728Z,15.51
2019-04-21T00:25:24.874Z,15.45
2019-04-21T00:27:58.836Z,15.45
2019-04-21T00:30:34.201Z,15.41
2019-04-21T00:32:58.788Z,15.38
2019-04-21T00:35:25.779Z,15.35
2019-04-21T00:38:20.616Z,15.32
2019-04-21T00:40:47.901Z,15.27
2019-04-21T00:43:16.905Z,15.23
2019-04-21T00:45:44.444Z,15.17
2019-04-21T00:48:29.785Z,15.06
2019-04-21T00:51:16.973Z,14.98
2019-04-21T00:53:44.048Z,14.90
2019-04-21T00:56:15.592Z,14.73
2019-04-21T00:58:47.855Z,14.64
2019-04-21T01:01:15.017Z,14.57
2019-04-21T01:03:58.114Z,14.54
2019-04-21T01:06:33.760Z,14.52
2019-04-21T01:08:59.045Z,14.48
2019-04-21T01:11:33.374Z,14.46
2019-04-21T01:14:05.262Z,14.43
2019-04-21T01:16:39.263Z,14.35
2019-04-21T01:19:12.090Z,14.29
2019-04-21T01:21:22.941Z,14.24
2019-04-21T01:23:55.633Z,14.14
2019-04-21T01:26:40.962Z,14.01
2019-04-21T01:29:15.969Z,14.01
2019-04-21T01:31:51.244Z,14.04
2019-04-21T01:34:29.030Z,14.00
2019-04-21T01:36:58.660Z,13.97
2019-04-21T01:39:38.742Z,13.96
2019-04-21T01:42:03.528Z,13.95
2019-04-21T01:44:44.987Z,13.94
2019-04-21T01:47:06.660Z,13.95
2019-04-21T01:49:34.503Z,13.94
2019-04-21T01:52:24.581Z,13.91
2019-04-21T01:55:08.343Z,13.89
2019-04-21T01:57:57.482Z,13.88
2019-04-21T02:00:45.155Z,13.85
2019-04-21T02:03:43.920Z,13.80
2019-04-21T02:05:58.587Z,13.76
2019-04-21T02:08:28.795Z,13.74
2019-04-21T02:11:05.208Z,13.67
2019-04-21T02:13:44.304Z,13.64
2019-04-21T02:16:06.853Z,13.62
2019-04-21T02:18:42.195Z,13.61
2019-04-21T02:21:00.489Z,13.58
2019-04-21T02:24:07.084Z,13.56
2019-04-21T02:26:22.867Z,13.53
2019-04-21T02:28:57.087Z,13.50
2019-04-21T02:31:39.584Z,13.48
2019-04-21T02:34:08.774Z,13.46
2019-04-21T02:39:18.018Z,13.42
2019-04-21T02:44:32.703Z,13.36
2019-04-21T02:46:50.596Z,13.31
2019-04-21T02:49:35.363Z,13.27
2019-04-21T02:52:02.137Z,13.22
2019-04-21T02:54:48.190Z,13.17
2019-04-21T02:57:14.338Z,13.11
2019-04-21T02:59:59.588Z,13.07
2019-04-21T03:02:47.299Z,13.02
2019-04-21T03:13:13.885Z,12.85
2019-04-21T03:18:12.887Z,12.74
2019-04-21T03:20:53.293Z,12.72
2019-04-21T03:23:27.597Z,12.68
2019-04-21T03:26:05.018Z,12.68
2019-04-21T03:28:32.148Z,12.67
2019-04-21T03:31:18.848Z,12.65
2019-04-21T03:41:12.367Z,12.54
2019-04-21T03:43:46.475Z,12.53
2019-04-21T03:46:24.804Z,12.49
2019-04-21T03:48:52.006Z,12.47
2019-04-21T03:53:56.960Z,12.42
2019-04-21T03:59:11.700Z,12.37
2019-04-21T04:01:58.372Z,12.35
2019-04-21T04:04:49.876Z,12.33
2019-04-21T04:07:50.121Z,12.28
2019-04-21T04:10:11.834Z,12.22
2019-04-21T04:15:26.017Z,12.15
2019-04-21T04:17:50.346Z,12.11
2019-04-21T04:23:10.227Z,12.08
2019-04-21T04:25:25.397Z,12.06
2019-04-21T04:28:08.596Z,12.04
2019-04-21T04:33:08.053Z,12.00
2019-04-21T04:35:52.805Z,11.98
2019-04-21T04:38:24.120Z,11.97
2019-04-21T04:40:55.948Z,11.96
2019-04-21T04:43:28.560Z,11.96
2019-04-21T04:46:02.650Z,11.97
2019-04-21T04:48:35.364Z,11.97
2019-04-21T04:51:01.307Z,11.95
2019-04-21T04:56:10.438Z,11.92
2019-04-21T04:59:23.381Z,11.84
2019-04-21T05:03:57.049Z,11.84
2019-04-21T05:09:11.379Z,11.82
2019-04-21T05:11:46.414Z,11.82
2019-04-21T05:16:57.669Z,11.82
2019-04-21T05:19:16.016Z,11.83
2019-04-21T05:24:07.509Z,11.85
2019-04-21T05:26:45.959Z,11.85
2019-04-21T05:29:10.914Z,11.88
2019-04-21T05:32:07.882Z,11.89
2019-04-21T05:34:43.107Z,11.93
2019-04-21T05:37:36.915Z,11.98
2019-04-21T05:40:29.852Z,12.03
2019-04-21T05:43:04.432Z,12.07
2019-04-21T05:45:40.556Z,12.13
2019-04-21T05:48:39.248Z,12.17
2019-04-21T05:50:55.503Z,12.20
2019-04-21T05:53:36.980Z,12.26
2019-04-21T05:56:09.981Z,12.31
2019-04-21T05:58:39.171Z,12.35
2019-04-21T06:03:54.955Z,12.43
2019-04-21T06:08:54.045Z,12.50
2019-04-21T06:11:30.903Z,12.52
2019-04-21T06:14:04.714Z,12.56
2019-04-21T06:16:40.729Z,12.58
2019-04-21T06:19:05.175Z,12.55
2019-04-21T06:21:41.748Z,12.60
2019-04-21T06:24:13.021Z,12.66
2019-04-21T06:26:59.262Z,12.72
2019-04-21T06:29:15.208Z,12.79
2019-04-21T06:32:16.670Z,12.85
2019-04-21T06:34:24.784Z,12.93
2019-04-21T06:37:29.934Z,12.98
2019-04-21T06:39:59.587Z,13.03
2019-04-21T06:42:16.520Z,13.10
2019-04-21T06:49:53.691Z,13.28
2019-04-21T06:55:10.310Z,13.39
2019-04-21T06:57:35.804Z,13.47
2019-04-21T07:00:10.385Z,13.55
2019-04-21T07:03:04.650Z,13.63
2019-04-21T07:05:14.072Z,13.71
2019-04-21T07:07:56.001Z,13.78
2019-04-21T07:10:21.019Z,13.84
2019-04-21T07:12:51.076Z,13.92
2019-04-21T07:15:25.196Z,14.00
2019-04-21T07:17:58.198Z,14.06
2019-04-21T07:20:28.248Z,14.11
2019-04-21T07:23:07.562Z,14.14
2019-04-21T07:25:41.211Z,14.22
2019-04-21T07:28:14.079Z,14.28
2019-04-21T07:30:45.359Z,14.31
2019-04-21T07:33:38.888Z,14.33
2019-04-21T07:35:43.306Z,14.40
2019-04-21T07:38:16.585Z,14.49
2019-04-21T07:40:45.559Z,14.59
2019-04-21T07:43:20.782Z,14.70
2019-04-21T07:45:56.452Z,14.80
2019-04-21T07:48:38.983Z,14.92
2019-04-21T07:51:25.457Z,15.01
2019-04-21T07:54:09.091Z,15.11
2019-04-21T07:56:21.757Z,15.23
2019-04-21T07:59:05.311Z,15.34
2019-04-21T08:01:37.010Z,15.46
2019-04-21T08:04:24.862Z,15.57
2019-04-21T08:06:46.482Z,15.69
2019-04-21T08:09:19.757Z,15.80
2019-04-21T08:11:48.695Z,15.85
2019-04-21T08:14:31.233Z,16.00
2019-04-21T08:16:58.894Z,16.11
2019-04-21T08:19:31.023Z,16.23
2019-04-21T08:22:32.133Z,16.35
2019-04-21T08:24:34.741Z,16.47
2019-04-21T08:27:10.973Z,16.59
2019-04-21T08:29:46.475Z,16.70
2019-04-21T08:32:31.124Z,16.81
2019-04-21T08:34:55.962Z,16.91
2019-04-21T08:37:27.573Z,16.98
2019-04-21T08:40:07.433Z,17.10
2019-04-21T08:42:33.181Z,17.21
2019-04-21T08:45:00.610Z,17.31
2019-04-21T08:47:44.182Z,17.41
2019-04-21T08:50:11.761Z,17.50
2019-04-21T08:55:25.135Z,17.66
2019-04-21T08:58:08.433Z,17.72
2019-04-21T09:00:49.473Z,17.78
2019-04-21T09:03:54.023Z,17.85
2019-04-21T09:08:52.239Z,17.94
2019-04-21T09:11:22.680Z,18.00
2019-04-21T09:14:05.201Z,18.09
2019-04-21T09:16:33.461Z,18.18
2019-04-21T09:18:59.487Z,18.24
2019-04-21T09:21:39.246Z,18.31
2019-04-21T09:24:11.443Z,18.39
2019-04-21T09:26:40.982Z,18.47
2019-04-21T09:29:09.285Z,18.55
2019-04-21T09:31:37.459Z,18.65
2019-04-21T09:34:06.554Z,18.75
2019-04-21T09:36:44.176Z,18.83
2019-04-21T09:39:16.625Z,18.89
2019-04-21T09:41:51.156Z,18.93
2019-04-21T09:44:25.955Z,18.97
2019-04-21T09:46:55.970Z,19.04
2019-04-21T09:49:29.062Z,19.12
2019-04-21T09:51:57.726Z,19.22
2019-04-21T09:54:33.425Z,19.32
2019-04-21T09:57:07.514Z,19.42
2019-04-21T09:59:38.696Z,19.51
2019-04-21T10:02:16.095Z,19.59
2019-04-21T10:04:42.316Z,19.68
2019-04-21T10:07:24.584Z,19.75
2019-04-21T10:09:47.894Z,19.81
2019-04-21T10:12:19.972Z,19.90
2019-04-21T10:14:51.834Z,19.90
2019-04-21T10:17:37.349Z,20.09
2019-04-21T10:20:09.537Z,20.18
2019-04-21T10:22:41.336Z,20.28
2019-04-21T10:25:12.860Z,20.39
2019-04-21T10:27:45.170Z,20.48
2019-04-21T10:30:16.584Z,20.58
2019-04-21T10:32:48.368Z,20.67
2019-04-21T10:35:21.808Z,20.77
2019-04-21T10:38:04.387Z,20.83
2019-04-21T10:40:25.767Z,20.96
2019-04-21T10:42:58.320Z,21.03
2019-04-21T10:45:30.827Z,21.13
2019-04-21T10:48:03.067Z,21.21
2019-04-21T10:50:34.840Z,21.31
2019-04-21T10:53:11.099Z,21.38
2019-04-21T10:55:57.997Z,21.43
2019-04-21T10:58:24.833Z,21.47
2019-04-21T11:01:14.242Z,21.51
2019-04-21T11:03:58.960Z,21.57
2019-04-21T11:06:30.796Z,21.66
2019-04-21T11:09:03.691Z,21.74
2019-04-21T11:11:37.684Z,21.81
2019-04-21T11:14:08.967Z,21.86
2019-04-21T11:16:41.567Z,21.90
2019-04-21T11:19:13.746Z,21.89
2019-04-21T11:21:45.116Z,21.93
2019-04-21T11:24:18.023Z,21.98
2019-04-21T11:26:49.738Z,22.06
2019-04-21T11:29:23.312Z,22.14
2019-04-21T11:31:54.887Z,22.24
2019-04-21T11:34:27.278Z,22.35
2019-04-21T11:36:58.758Z,22.45
2019-04-21T11:39:37.545Z,22.57
2019-04-21T11:42:10.087Z,22.68
2019-04-21T11:44:41.705Z,22.76
2019-04-21T11:47:22.737Z,22.84
2019-04-21T11:49:54.931Z,22.93
2019-04-21T11:52:27.239Z,22.99
2019-04-21T11:54:58.732Z,23.02
2019-04-21T11:57:34.948Z,23.05
2019-04-21T12:00:03.935Z,23.13
2019-04-21T12:02:37.417Z,23.22
2019-04-21T12:05:11.623Z,23.27
2019-04-21T12:07:43.226Z,23.32
2019-04-21T12:10:15.600Z,23.39
2019-04-21T12:12:47.872Z,23.45
2019-04-21T12:15:19.143Z,23.55
2019-04-21T12:17:50.496Z,23.63
2019-04-21T12:20:21.726Z,23.74
2019-04-21T12:22:53.060Z,23.84
2019-04-21T12:25:27.250Z,23.95
2019-04-21T12:27:58.567Z,24.04
2019-04-21T12:30:29.766Z,24.10
2019-04-21T12:33:24.285Z,24.19
2019-04-21T12:35:55.697Z,24.29
2019-04-21T12:38:36.493Z,25.02
2019-04-21T12:41:00.402Z,25.89
2019-04-21T12:43:32.860Z,26.83
2019-04-21T12:46:04.397Z,26.83
2019-04-21T12:48:35.855Z,27.26
2019-04-21T12:51:07.865Z,27.57
2019-04-21T12:53:39.551Z,27.89
2019-04-21T12:56:11.809Z,28.19
2019-04-21T12:58:43.547Z,28.42
2019-04-21T13:01:14.992Z,28.79
2019-04-21T13:03:46.239Z,29.50
2019-04-21T13:06:17.451Z,30.36
2019-04-21T13:08:55.674Z,30.81
2019-04-21T13:11:21.737Z,31.20
2019-04-21T13:13:53.653Z,31.53
2019-04-21T13:16:25.427Z,31.84
2019-04-21T13:18:57.855Z,32.17
2019-04-21T13:21:29.939Z,32.55
2019-04-21T13:24:01.465Z,32.85
2019-04-21T13:26:39.444Z,33.11
2019-04-21T13:29:06.022Z,33.36
2019-04-21T13:31:38.434Z,33.67
2019-04-21T13:34:10.457Z,34.04
2019-04-21T13:36:41.793Z,34.37
2019-04-21T13:39:56.636Z,34.70
2019-04-21T13:42:13.216Z,35.02
2019-04-21T13:44:39.172Z,35.35
2019-04-21T13:47:10.571Z,35.46
2019-04-21T13:49:43.363Z,35.27
2019-04-21T13:52:14.968Z,35.40
2019-04-21T13:54:47.439Z,35.70
2019-04-21T13:57:18.856Z,36.06
2019-04-21T13:59:51.407Z,36.37
2019-04-21T14:02:22.749Z,36.68
2019-04-21T14:04:54.048Z,36.97
2019-04-21T14:07:26.116Z,37.21
2019-04-21T14:10:02.566Z,37.40
2019-04-21T14:12:31.573Z,37.60
2019-04-21T14:15:04.150Z,37.81
2019-04-21T14:17:37.014Z,37.80
2019-04-21T14:20:09.114Z,37.80
2019-04-21T14:22:40.508Z,37.86
2019-04-21T14:25:12.118Z,37.87
2019-04-21T14:27:45.675Z,37.74
2019-04-21T14:30:16.638Z,37.65
2019-04-21T14:32:47.866Z,37.51
2019-04-21T14:35:20.870Z,37.36
2019-04-21T14:37:52.908Z,37.22
2019-04-21T14:40:27.749Z,37.01
2019-04-21T14:42:58.335Z,36.63
2019-04-21T14:45:58.972Z,36.21
2019-04-21T14:48:48.771Z,35.88
2019-04-21T14:51:37.175Z,35.22
2019-04-21T14:54:17.327Z,35.22
2019-04-21T14:56:49.349Z,35.06
2019-04-21T14:59:21.381Z,35.02
2019-04-21T15:01:53.662Z,35.07
2019-04-21T15:04:25.752Z,35.12
2019-04-21T15:06:57.126Z,35.11
2019-04-21T15:09:29.351Z,35.26
2019-04-21T15:12:02.392Z,35.42
2019-04-21T15:14:33.873Z,35.65
2019-04-21T15:17:05.145Z,35.87
2019-04-21T15:19:36.332Z,36.05
2019-04-21T15:22:08.236Z,36.20
2019-04-21T15:24:40.436Z,36.33
2019-04-21T15:27:12.760Z,36.51
2019-04-21T15:29:44.846Z,36.59
2019-04-21T15:32:16.894Z,36.64
2019-04-21T15:34:48.172Z,36.64
2019-04-21T15:37:19.961Z,36.61
2019-04-21T15:39:51.300Z,36.62
2019-04-21T15:42:22.597Z,36.59
2019-04-21T15:44:54.848Z,36.53
2019-04-21T15:47:26.269Z,36.46
2019-04-21T15:50:04.773Z,36.33
2019-04-21T15:52:31.646Z,36.06
2019-04-21T15:55:08.394Z,35.75
2019-04-21T15:58:02.741Z,35.46
2019-04-21T16:00:58.885Z,35.13
2019-04-21T16:03:31.092Z,34.82
2019-04-21T16:06:03.315Z,34.60
2019-04-21T16:08:35.235Z,34.41
2019-04-21T16:11:09.283Z,34.26
2019-04-21T16:13:39.717Z,34.15
2019-04-21T16:16:12.655Z,34.03
2019-04-21T16:18:43.929Z,33.95
2019-04-21T16:21:15.962Z,33.76
2019-04-21T16:23:48.620Z,33.60
2019-04-21T16:26:22.248Z,33.37
2019-04-21T16:28:55.207Z,33.13
2019-04-21T16:31:27.674Z,32.86
2019-04-21T16:33:59.228Z,32.58
2019-04-21T16:36:31.803Z,32.33
2019-04-21T16:39:05.178Z,32.12
2019-04-21T16:41:38.413Z,31.92
2019-04-21T16:44:11.208Z,31.72
2019-04-21T16:46:43.365Z,31.52
2019-04-21T16:49:15.872Z,31.30
2019-04-21T16:51:50.027Z,31.05
2019-04-21T16:54:26.237Z,30.79
2019-04-21T16:57:29.946Z,30.52
2019-04-21T17:00:08.707Z,30.27
2019-04-21T17:02:40.859Z,29.97
2019-04-21T17:05:12.264Z,29.69
2019-04-21T17:07:44.977Z,29.45
2019-04-21T17:10:17.023Z,29.18
2019-04-21T17:12:48.313Z,28.93
2019-04-21T17:15:35.666Z,28.67
2019-04-21T17:18:08.834Z,28.42
2019-04-21T17:20:38.170Z,28.19
2019-04-21T17:22:59.663Z,27.96
2019-04-21T17:25:32.080Z,27.77
2019-04-21T17:28:03.635Z,27.58
2019-04-21T17:30:35.175Z,27.39
2019-04-21T17:33:11.252Z,27.22
2019-04-21T17:35:40.797Z,27.06
2019-04-21T17:38:12.234Z,26.88
2019-04-21T17:40:44.043Z,26.74
2019-04-21T17:43:17.972Z,26.58
2019-04-21T17:45:48.955Z,26.41
2019-04-21T17:48:21.590Z,26.25
2019-04-21T17:51:05.295Z,26.08
2019-04-21T17:53:47.783Z,25.93
2019-04-21T17:56:46.266Z,25.74
2019-04-21T17:59:04.170Z,25.60
2019-04-21T18:01:45.045Z,25.45
2019-04-21T18:04:15.252Z,25.30
2019-04-21T18:07:10.245Z,25.13
2019-04-21T18:09:56.565Z,24.92
2019-04-21T18:12:16.585Z,24.70
2019-04-21T18:14:34.655Z,24.54
2019-04-21T18:17:06.510Z,24.43
2019-04-21T18:19:41.775Z,24.30
2019-04-21T18:22:32.105Z,24.18
2019-04-21T18:25:11.815Z,24.05
2019-04-21T18:27:38.756Z,23.92
2019-04-21T18:30:49.874Z,23.80
2019-04-21T18:33:27.445Z,23.69
2019-04-21T18:36:29.061Z,23.57
2019-04-21T18:39:29.924Z,23.45
2019-04-21T18:42:09.633Z,23.31
2019-04-21T18:45:20.625Z,23.18
2019-04-21T18:47:55.463Z,23.07
2019-04-21T18:50:41.552Z,22.96
2019-04-21T18:53:19.434Z,22.85
2019-04-21T18:55:47.125Z,22.75
2019-04-21T18:58:15.841Z,22.66
2019-04-21T19:00:48.759Z,22.55
2019-04-21T19:03:29.234Z,22.45
2019-04-21T19:06:03.871Z,22.35
2019-04-21T19:08:48.523Z,22.27
2019-04-21T19:11:18.974Z,22.18
2019-04-21T19:14:29.048Z,22.08
2019-04-21T19:22:00.385Z,21.82
2019-04-21T19:24:32.023Z,21.75
2019-04-21T19:27:04.932Z,21.67
2019-04-21T19:29:31.966Z,21.55
2019-04-21T19:32:10.487Z,21.55
2019-04-21T19:34:28.172Z,21.44
2019-04-21T19:37:03.104Z,21.42
2019-04-21T19:39:41.701Z,21.35
2019-04-21T19:42:12.020Z,21.28
2019-04-21T19:44:52.217Z,21.19
2019-04-21T19:47:28.178Z,21.11
2019-04-21T19:50:01.435Z,21.05
2019-04-21T19:52:26.579Z,20.96
2019-04-21T19:54:50.108Z,20.86
2019-04-21T19:57:20.846Z,20.80
2019-04-21T19:59:55.891Z,20.74
2019-04-21T20:02:26.807Z,20.69
2019-04-21T20:05:04.954Z,20.63
2019-04-21T20:07:45.790Z,20.56
2019-04-21T20:10:27.174Z,20.52
2019-04-21T20:12:57.030Z,20.46
2019-04-21T20:15:37.423Z,20.41
2019-04-21T20:17:58.332Z,20.36
2019-04-21T20:20:17.457Z,20.31
2019-04-21T20:22:51.890Z,20.26
2019-04-21T20:25:23.683Z,20.22
2019-04-21T20:28:05.458Z,20.16
2019-04-21T20:30:42.433Z,20.11
2019-04-21T20:33:42.909Z,20.06
2019-04-21T20:35:59.203Z,20.03
2019-04-21T20:38:19.193Z,20.00
2019-04-21T20:40:51.014Z,19.95
2019-04-21T20:43:38.685Z,19.89
2019-04-21T20:46:17.201Z,19.85
2019-04-21T20:48:34.729Z,19.80
2019-04-21T20:51:11.866Z,19.75
2019-04-21T20:53:42.601Z,19.71
2019-04-21T20:56:11.408Z,19.66
2019-04-21T20:58:53.703Z,19.62
2019-04-21T21:03:55.641Z,19.53
2019-04-21T21:06:26.345Z,19.48
2019-04-21T21:09:01.620Z,19.43
2019-04-21T21:11:56.846Z,19.39
2019-04-21T21:14:07.502Z,19.33
2019-04-21T21:16:46.399Z,19.27
2019-04-21T21:21:45.694Z,19.16
2019-04-21T21:24:29.052Z,19.06
2019-04-21T21:26:54.623Z,19.05
2019-04-21T21:29:31.593Z,19.00
2019-04-21T21:32:06.865Z,18.95
2019-04-21T21:34:35.878Z,18.90
2019-04-21T21:37:11.494Z,18.84
2019-04-21T21:39:47.207Z,18.78
2019-04-21T21:42:00.941Z,18.75
2019-04-21T21:44:28.296Z,18.71
2019-04-21T21:47:09.791Z,18.65
2019-04-21T21:49:46.786Z,18.61
2019-04-21T21:52:13.250Z,18.55
2019-04-21T21:54:38.354Z,18.53
2019-04-21T21:57:10.294Z,18.49
2019-04-21T21:59:42.228Z,18.44
2019-04-21T22:02:24.099Z,18.41
2019-04-21T22:04:56.910Z,18.39
2019-04-21T22:07:26.909Z,18.34
2019-04-21T22:09:54.575Z,18.30
2019-04-21T22:12:28.755Z,18.24
2019-04-21T22:15:04.540Z,18.20
2019-04-21T22:17:53.027Z,18.16
2019-04-21T22:20:27.812Z,18.11
2019-04-21T22:22:49.852Z,18.07
2019-04-21T22:25:20.630Z,18.00
2019-04-21T22:27:45.398Z,17.94
2019-04-21T22:30:24.692Z,17.89
2019-04-21T22:32:58.012Z,17.82
2019-04-21T22:35:31.625Z,17.76
2019-04-21T22:38:10.633Z,17.69
2019-04-21T22:40:45.334Z,17.64
2019-04-21T22:43:14.259Z,17.58
2019-04-21T22:45:35.654Z,17.54
2019-04-21T22:48:14.415Z,17.50
2019-04-21T22:50:40.681Z,17.46
2019-04-21T22:53:13.805Z,17.43
2019-04-21T22:55:45.131Z,17.38
2019-04-21T22:58:24.819Z,17.34
2019-04-21T23:00:54.640Z,17.31
2019-04-21T23:03:25.282Z,17.26
2019-04-21T23:06:01.076Z,17.21
2019-04-21T23:08:34.541Z,17.18
2019-04-21T23:11:08.141Z,17.12
2019-04-21T23:13:36.332Z,17.09
2019-04-21T23:16:08.527Z,17.03
2019-04-21T23:18:59.436Z,16.98
2019-04-21T23:21:27.785Z,16.93
2019-04-21T23:24:05.098Z,16.88
2019-04-21T23:26:37.904Z,16.84
2019-04-21T23:29:15.533Z,16.81
2019-04-21T23:31:47.108Z,16.76
2019-04-21T23:34:00.122Z,16.71
2019-04-21T23:36:33.398Z,16.66
2019-04-21T23:39:13.194Z,16.61
2019-04-21T23:41:43.706Z,16.56
2019-04-21T23:44:14.135Z,16.50
2019-04-21T23:46:45.956Z,16.46
2019-04-21T23:49:29.667Z,16.42
2019-04-21T23:51:56.780Z,16.38
2019-04-21T23:54:23.210Z,16.33
2019-04-21T23:56:55.828Z,16.28
2019-04-21T23:59:32.388Z,16.24
